Time;durP1;ratioP1;P1;durP2;ratioP2;P2;SDS_P1;SDS_P2;PMS_P1;PMS_P2;Temp;Humidity;BMP_temperature;BMP_pressure;BME280_temperature;BME280_humidity;BME280_pressure;Samples;Min_cycle;Max_cycle;Signal;HPM_P1;HPM_P2
2021/07/30 00:00:22;;;;;;;11.55;5.63;;;14.20;99.90;;;;;;6161756;23;20025;-81
2021/07/30 00:02:48;;;;;;;12.60;5.72;;;14.30;99.90;;;;;;6124919;23;20035;-81
2021/07/30 00:05:14;;;;;;;14.85;5.40;;;14.30;99.90;;;;;;6150738;23;20021;-80
2021/07/30 00:07:40;;;;;;;16.98;6.38;;;14.30;99.90;;;;;;6128304;23;20096;-81
2021/07/30 00:10:10;;;;;;;23.40;6.65;;;14.30;99.90;;;;;;6126662;23;20024;-82
2021/07/30 00:12:39;;;;;;;16.27;6.55;;;14.30;99.90;;;;;;6135486;23;20116;-81
2021/07/30 00:15:08;;;;;;;20.23;7.22;;;14.30;99.90;;;;;;6137837;23;20017;-81
2021/07/30 00:17:34;;;;;;;19.10;6.93;;;14.30;99.90;;;;;;6134166;23;20333;-81
2021/07/30 00:20:05;;;;;;;15.93;6.30;;;14.30;99.90;;;;;;6125672;23;20045;-81
2021/07/30 00:22:31;;;;;;;20.27;6.60;;;14.30;99.90;;;;;;6125433;23;20041;-81
2021/07/30 00:24:57;;;;;;;19.48;6.88;;;14.30;99.90;;;;;;6124017;23;20025;-81
2021/07/30 00:27:22;;;;;;;19.48;6.50;;;14.20;99.90;;;;;;6137431;23;20027;-81
2021/07/30 00:29:48;;;;;;;21.77;6.28;;;14.20;99.90;;;;;;6125135;23;20104;-81
2021/07/30 00:32:14;;;;;;;22.30;6.80;;;14.20;99.90;;;;;;6100010;23;20440;-81
2021/07/30 00:34:40;;;;;;;15.93;6.05;;;14.10;99.90;;;;;;6134751;23;20048;-81
2021/07/30 00:37:06;;;;;;;14.50;6.47;;;14.10;99.90;;;;;;6148846;23;20084;-81
2021/07/30 00:39:31;;;;;;;19.08;6.93;;;14.10;99.90;;;;;;6124788;23;20105;-81
2021/07/30 00:42:02;;;;;;;15.77;6.07;;;14.00;99.90;;;;;;6135530;23;20067;-82
2021/07/30 00:44:31;;;;;;;18.05;6.95;;;14.00;99.90;;;;;;6161695;23;20020;-81
2021/07/30 00:46:58;;;;;;;18.27;6.07;;;14.00;99.90;;;;;;6126202;23;20017;-81
2021/07/30 00:49:25;;;;;;;18.25;6.25;;;14.00;99.90;;;;;;6126330;23;20016;-81
2021/07/30 00:51:52;;;;;;;17.15;6.25;;;13.90;99.90;;;;;;6124136;23;20022;-81
2021/07/30 00:54:18;;;;;;;27.35;6.97;;;13.90;99.90;;;;;;6135105;23;20020;-80
2021/07/30 00:56:44;;;;;;;15.63;6.30;;;13.80;99.90;;;;;;6124596;23;20100;-81
2021/07/30 00:59:10;;;;;;;17.20;6.10;;;13.80;99.90;;;;;;6125270;23;20095;-81
2021/07/30 01:01:36;;;;;;;18.70;6.88;;;13.90;99.90;;;;;;6126111;23;20021;-82
2021/07/30 01:04:03;;;;;;;17.13;6.28;;;13.80;99.90;;;;;;6134352;23;20021;-81
2021/07/30 01:06:32;;;;;;;14.15;6.85;;;13.80;99.90;;;;;;6150541;23;20048;-81
2021/07/30 01:08:58;;;;;;;19.73;6.63;;;13.70;99.90;;;;;;6126119;23;20040;-81
2021/07/30 01:11:24;;;;;;;19.05;6.57;;;13.70;99.90;;;;;;6124681;23;20049;-82
2021/07/30 01:13:50;;;;;;;24.95;7.13;;;13.70;99.90;;;;;;6125480;23;20505;-81
2021/07/30 01:16:16;;;;;;;17.45;6.82;;;13.70;99.90;;;;;;6126036;23;20019;-81
2021/07/30 01:18:42;;;;;;;17.88;6.63;;;13.70;99.90;;;;;;6151831;23;20067;-82
2021/07/30 01:21:23;;;;;;;19.10;7.05;;;13.70;99.90;;;;;;6149104;23;20028;-81
2021/07/30 01:23:49;;;;;;;21.15;6.63;;;13.60;99.90;;;;;;6125986;23;20481;-81
2021/07/30 01:26:16;;;;;;;15.77;7.15;;;13.60;99.90;;;;;;6126964;23;20048;-81
2021/07/30 01:28:42;;;;;;;19.52;7.00;;;13.60;99.90;;;;;;6161947;23;20318;-82
2021/07/30 01:31:08;;;;;;;20.00;7.25;;;13.70;99.90;;;;;;6125151;23;20020;-81
2021/07/30 01:33:35;;;;;;;20.45;7.50;;;13.50;99.90;;;;;;6133712;23;20017;-81
2021/07/30 01:36:01;;;;;;;20.58;7.57;;;13.50;99.90;;;;;;6150098;23;20348;-81
2021/07/30 01:38:27;;;;;;;23.73;7.80;;;13.50;99.90;;;;;;6124895;23;20072;-82
2021/07/30 01:40:54;;;;;;;20.80;7.28;;;13.50;99.90;;;;;;6099185;23;20450;-81
2021/07/30 01:43:20;;;;;;;17.02;7.47;;;13.50;99.90;;;;;;6124494;23;20009;-81
2021/07/30 01:45:46;;;;;;;22.58;7.15;;;13.50;99.90;;;;;;6134731;23;20014;-81
2021/07/30 01:48:11;;;;;;;18.77;7.43;;;13.40;99.90;;;;;;6152963;23;20133;-81
2021/07/30 01:50:37;;;;;;;17.38;7.75;;;13.40;99.90;;;;;;6099758;23;20388;-82
2021/07/30 01:53:03;;;;;;;20.60;8.05;;;13.40;99.90;;;;;;6151561;23;20013;-81
2021/07/30 01:55:29;;;;;;;20.98;8.43;;;13.30;99.90;;;;;;6124410;23;20010;-81
2021/07/30 01:57:54;;;;;;;20.23;8.02;;;13.40;99.90;;;;;;6124456;23;20419;-81
2021/07/30 02:00:23;;;;;;;21.75;8.23;;;13.30;99.90;;;;;;6135756;23;20353;-81
2021/07/30 02:02:48;;;;;;;21.52;8.98;;;13.30;99.90;;;;;;6124953;23;20010;-81
2021/07/30 02:05:14;;;;;;;19.98;8.30;;;13.30;99.90;;;;;;6127691;23;20014;-81
2021/07/30 02:07:40;;;;;;;24.13;8.55;;;13.30;99.90;;;;;;6152816;23;20384;-82
2021/07/30 02:10:07;;;;;;;22.20;8.43;;;13.30;99.90;;;;;;6160152;23;20324;-82
2021/07/30 02:15:19;;;;;;;20.45;8.52;;;13.20;99.90;;;;;;6125676;23;20019;-81
2021/07/30 02:17:45;;;;;;;21.33;8.38;;;13.20;99.90;;;;;;6135109;23;20021;-81
2021/07/30 02:20:11;;;;;;;20.27;8.65;;;13.20;99.90;;;;;;6125180;23;20323;-81
2021/07/30 02:22:36;;;;;;;18.42;9.15;;;13.20;99.90;;;;;;6123224;23;20009;-81
2021/07/30 02:25:02;;;;;;;20.25;9.30;;;13.10;99.90;;;;;;6100422;23;20045;-82
2021/07/30 02:27:28;;;;;;;22.38;9.65;;;13.20;99.90;;;;;;6152546;23;20014;-81
2021/07/30 02:29:54;;;;;;;21.73;10.18;;;13.10;99.90;;;;;;6162037;23;20018;-81
2021/07/30 02:32:20;;;;;;;21.15;9.73;;;13.10;99.90;;;;;;6126734;23;20013;-82
2021/07/30 02:34:46;;;;;;;21.35;9.85;;;13.10;99.90;;;;;;6136662;23;20025;-81
2021/07/30 02:37:12;;;;;;;32.30;10.70;;;13.10;99.90;;;;;;6129307;23;20076;-81
2021/07/30 02:39:37;;;;;;;25.52;9.68;;;13.10;99.90;;;;;;6128105;23;20076;-80
2021/07/30 02:42:04;;;;;;;24.67;9.77;;;13.10;99.90;;;;;;6137756;23;20469;-81
2021/07/30 02:44:31;;;;;;;18.73;9.63;;;13.10;99.90;;;;;;6137737;23;20073;-81
2021/07/30 02:46:57;;;;;;;22.52;9.55;;;13.10;99.90;;;;;;6154781;23;20449;-81
2021/07/30 02:49:23;;;;;;;29.13;10.50;;;13.10;99.90;;;;;;6125252;23;20075;-81
2021/07/30 02:51:48;;;;;;;26.48;11.52;;;13.10;99.90;;;;;;6124731;23;20093;-81
2021/07/30 02:54:14;;;;;;;24.25;9.90;;;13.00;99.90;;;;;;6136282;23;20013;-81
2021/07/30 02:56:40;;;;;;;22.13;10.20;;;13.10;99.90;;;;;;6125179;23;20415;-80
2021/07/30 02:59:05;;;;;;;22.42;9.77;;;13.00;99.90;;;;;;6126826;23;20076;-81
2021/07/30 03:01:31;;;;;;;21.35;9.88;;;13.00;99.90;;;;;;6102380;23;20084;-82
2021/07/30 03:03:57;;;;;;;21.00;9.85;;;13.00;99.90;;;;;;6125997;23;20020;-81
2021/07/30 03:06:23;;;;;;;19.88;9.35;;;12.90;99.90;;;;;;6132113;23;20013;-82
2021/07/30 03:08:49;;;;;;;22.98;10.50;;;13.00;99.90;;;;;;6122086;23;20018;-81
2021/07/30 03:11:15;;;;;;;27.42;10.85;;;13.00;99.90;;;;;;6144805;23;20132;-81
2021/07/30 03:13:41;;;;;;;28.33;10.32;;;13.00;99.90;;;;;;6131964;23;20508;-81
2021/07/30 03:16:07;;;;;;;24.83;10.13;;;13.00;99.90;;;;;;6094919;23;20089;-81
2021/07/30 03:18:33;;;;;;;22.35;10.60;;;13.00;99.90;;;;;;6123022;23;20085;-81
2021/07/30 03:20:59;;;;;;;27.13;9.88;;;13.00;99.90;;;;;;6120284;23;20427;-81
2021/07/30 03:23:25;;;;;;;28.05;10.90;;;12.90;99.90;;;;;;6121338;23;20013;-81
2021/07/30 03:25:50;;;;;;;19.50;10.32;;;12.90;99.90;;;;;;6095750;23;20018;-81
2021/07/30 03:28:16;;;;;;;32.67;11.13;;;12.90;99.90;;;;;;6131561;23;20017;-81
2021/07/30 03:30:48;;;;;;;25.30;10.82;;;12.90;99.90;;;;;;6098150;23;20022;-82
2021/07/30 03:33:13;;;;;;;23.20;10.50;;;13.00;99.90;;;;;;6122306;23;20021;-81
2021/07/30 03:35:40;;;;;;;23.52;10.45;;;12.90;99.90;;;;;;6120051;23;20021;-81
2021/07/30 03:38:06;;;;;;;22.65;10.35;;;12.90;99.90;;;;;;6122727;23;20018;-81
2021/07/30 03:40:32;;;;;;;22.85;9.85;;;12.90;99.90;;;;;;6120238;23;20247;-81
2021/07/30 03:42:59;;;;;;;24.40;10.73;;;12.90;99.90;;;;;;6096872;23;20014;-82
2021/07/30 03:45:25;;;;;;;24.42;9.98;;;12.90;99.90;;;;;;6123351;23;20118;-81
2021/07/30 03:47:51;;;;;;;23.05;9.90;;;12.80;99.90;;;;;;6130548;23;20017;-80
2021/07/30 03:50:17;;;;;;;23.65;9.95;;;12.90;99.90;;;;;;6118514;23;20104;-82
2021/07/30 03:52:43;;;;;;;24.75;10.38;;;12.90;99.90;;;;;;6120711;23;20018;-80
2021/07/30 03:55:11;;;;;;;18.67;9.93;;;12.90;99.90;;;;;;6101125;23;20010;-81
2021/07/30 03:57:37;;;;;;;20.95;10.35;;;12.90;99.90;;;;;;6124342;23;20021;-81
2021/07/30 04:00:04;;;;;;;25.63;10.38;;;12.80;99.90;;;;;;6098006;23;20014;-81
2021/07/30 04:02:30;;;;;;;25.88;10.02;;;12.90;99.90;;;;;;6120154;23;20083;-81
2021/07/30 04:04:57;;;;;;;20.83;9.68;;;13.00;99.90;;;;;;6119166;23;20480;-80
2021/07/30 04:07:23;;;;;;;20.92;9.32;;;12.90;99.90;;;;;;6131072;23;20123;-81
2021/07/30 04:09:49;;;;;;;21.27;9.90;;;12.90;99.90;;;;;;6133324;23;20410;-81
2021/07/30 04:12:14;;;;;;;20.00;9.85;;;12.90;99.90;;;;;;6132641;23;20088;-81
2021/07/30 04:14:42;;;;;;;20.60;10.05;;;12.90;99.90;;;;;;6124476;23;20513;-80
2021/07/30 04:17:08;;;;;;;17.88;9.55;;;12.90;99.90;;;;;;6132651;23;20045;-80
2021/07/30 04:19:34;;;;;;;24.73;10.02;;;12.90;99.90;;;;;;6124123;23;20100;-82
2021/07/30 04:22:00;;;;;;;20.95;10.35;;;13.00;99.90;;;;;;6098193;23;20014;-81
2021/07/30 04:24:26;;;;;;;21.88;10.48;;;13.00;99.90;;;;;;6133505;23;20017;-81
2021/07/30 04:26:54;;;;;;;26.38;10.10;;;13.00;99.90;;;;;;6124718;23;20438;-82
2021/07/30 04:29:20;;;;;;;21.75;10.68;;;12.90;99.90;;;;;;6124207;23;20017;-82
2021/07/30 04:31:51;;;;;;;23.25;10.65;;;13.00;99.90;;;;;;6124319;23;20022;-80
2021/07/30 04:34:16;;;;;;;24.17;10.02;;;13.10;99.90;;;;;;6124613;23;20020;-81
2021/07/30 04:36:43;;;;;;;20.15;10.10;;;13.20;99.90;;;;;;6123655;23;20373;-82
2021/07/30 04:39:09;;;;;;;24.63;10.13;;;13.20;99.90;;;;;;6123257;23;20017;-81
2021/07/30 04:41:35;;;;;;;19.70;9.48;;;13.20;99.90;;;;;;6134153;23;20087;-80
2021/07/30 04:44:02;;;;;;;22.02;9.50;;;13.30;99.90;;;;;;6123173;23;20088;-79
2021/07/30 04:46:27;;;;;;;22.60;9.10;;;13.30;99.90;;;;;;6151493;23;20013;-82
2021/07/30 04:48:53;;;;;;;15.65;9.18;;;13.40;99.90;;;;;;6100542;23;20009;-80
2021/07/30 04:51:19;;;;;;;21.30;9.68;;;13.60;99.90;;;;;;6149587;23;20379;-79
2021/07/30 04:53:49;;;;;;;21.05;10.02;;;13.70;99.90;;;;;;6122782;23;20196;-81
2021/07/30 04:56:21;;;;;;;25.08;9.52;;;13.80;99.90;;;;;;6161880;23;20485;-82
2021/07/30 04:58:47;;;;;;;19.27;10.20;;;13.80;99.90;;;;;;6124791;23;20021;-82
2021/07/30 05:01:13;;;;;;;21.83;9.18;;;13.80;99.90;;;;;;6149725;23;20029;-82
2021/07/30 05:03:39;;;;;;;21.60;10.35;;;13.90;99.90;;;;;;6123220;23;20087;-82
2021/07/30 05:06:16;;;;;;;16.85;9.15;;;13.90;99.90;;;;;;6122085;23;20006;-82
2021/07/30 05:08:43;;;;;;;25.73;10.00;;;13.90;99.90;;;;;;6093134;23;20052;-81
2021/07/30 05:11:11;;;;;;;21.10;10.45;;;13.90;99.90;;;;;;6118638;23;20459;-82
2021/07/30 05:13:42;;;;;;;24.70;10.43;;;14.00;99.90;;;;;;6128298;23;20014;-80
2021/07/30 05:16:13;;;;;;;23.52;10.55;;;14.00;99.90;;;;;;6121282;23;20026;-80
2021/07/30 05:18:39;;;;;;;18.35;10.05;;;13.90;99.90;;;;;;6106245;23;20014;-80
2021/07/30 05:21:12;;;;;;;20.58;10.38;;;13.90;99.90;;;;;;6129733;23;20324;-79
2021/07/30 05:23:38;;;;;;;26.95;10.38;;;14.00;99.90;;;;;;6118515;23;20036;-79
2021/07/30 05:26:04;;;;;;;21.58;9.57;;;14.00;99.90;;;;;;6129597;23;20053;-79
2021/07/30 05:28:31;;;;;;;25.88;9.88;;;14.10;99.90;;;;;;6119659;23;20019;-79
2021/07/30 05:30:58;;;;;;;21.73;9.75;;;14.10;99.90;;;;;;6117924;23;20091;-80
2021/07/30 05:33:27;;;;;;;20.70;10.30;;;14.10;99.90;;;;;;6119343;23;20100;-82
2021/07/30 05:35:53;;;;;;;20.65;10.73;;;14.20;99.90;;;;;;6118816;23;20419;-80
2021/07/30 05:38:20;;;;;;;26.70;10.15;;;14.40;99.90;;;;;;6120227;23;20042;-81
2021/07/30 05:40:46;;;;;;;20.48;9.52;;;14.30;99.90;;;;;;6117894;23;20068;-80
2021/07/30 05:43:12;;;;;;;22.20;10.82;;;14.40;99.90;;;;;;6130970;23;20343;-80
2021/07/30 05:45:38;;;;;;;19.10;9.98;;;14.50;99.90;;;;;;6130729;23;20014;-80
2021/07/30 05:48:04;;;;;;;23.05;10.77;;;14.50;99.90;;;;;;6096413;23;20022;-80
2021/07/30 05:50:34;;;;;;;24.58;9.63;;;14.60;99.90;;;;;;6120535;23;20080;-81
2021/07/30 05:53:00;;;;;;;19.52;10.02;;;14.70;99.90;;;;;;6121833;23;20351;-79
2021/07/30 05:55:26;;;;;;;18.83;10.15;;;14.70;99.90;;;;;;6131226;23;20018;-80
2021/07/30 05:57:51;;;;;;;23.50;9.75;;;14.70;99.90;;;;;;6128414;23;20347;-80
2021/07/30 06:00:17;;;;;;;25.63;10.20;;;14.70;99.90;;;;;;6119959;23;20010;-80
2021/07/30 06:02:43;;;;;;;20.58;10.13;;;14.80;99.90;;;;;;6129941;23;20076;-81
2021/07/30 06:05:09;;;;;;;27.77;9.95;;;14.80;99.90;;;;;;6121304;23;20368;-82
2021/07/30 06:07:35;;;;;;;18.67;9.43;;;14.90;99.90;;;;;;6127990;23;20014;-80
2021/07/30 06:10:01;;;;;;;17.50;9.48;;;15.00;99.90;;;;;;6127514;23;20097;-79
2021/07/30 06:12:28;;;;;;;22.50;9.63;;;15.10;99.90;;;;;;6103503;23;20588;-79
2021/07/30 06:14:54;;;;;;;19.98;9.10;;;15.20;99.90;;;;;;6127692;23;20398;-79
2021/07/30 06:17:22;;;;;;;21.27;9.77;;;15.30;99.90;;;;;;6129167;23;20017;-80
2021/07/30 06:19:47;;;;;;;22.80;9.50;;;15.40;99.90;;;;;;6164100;23;20065;-81
2021/07/30 06:22:13;;;;;;;20.50;8.93;;;15.40;99.90;;;;;;6159119;23;20096;-80
2021/07/30 06:24:42;;;;;;;20.52;9.32;;;15.50;99.90;;;;;;6137795;23;20013;-81
2021/07/30 06:27:08;;;;;;;24.45;9.35;;;15.60;99.90;;;;;;6162015;23;20021;-80
2021/07/30 06:29:33;;;;;;;20.85;9.63;;;15.70;99.90;;;;;;6163186;23;20010;-78
2021/07/30 06:31:59;;;;;;;24.50;7.93;;;15.80;99.90;;;;;;6126107;23;20025;-79
2021/07/30 06:34:25;;;;;;;17.40;7.75;;;16.00;99.90;;;;;;6160390;23;20060;-79
2021/07/30 06:36:58;;;;;;;21.20;8.35;;;16.20;99.90;;;;;;6122998;23;20053;-79
2021/07/30 06:39:24;;;;;;;22.30;7.57;;;16.30;99.90;;;;;;6151978;23;20427;-79
2021/07/30 06:41:50;;;;;;;24.83;8.13;;;16.50;99.90;;;;;;6152487;23;20092;-79
2021/07/30 06:44:16;;;;;;;16.63;7.75;;;16.50;99.90;;;;;;6159629;23;20092;-78
2021/07/30 06:46:42;;;;;;;19.70;8.60;;;16.50;99.90;;;;;;6149906;23;20021;-77
2021/07/30 06:49:08;;;;;;;14.85;7.30;;;16.50;99.90;;;;;;6125650;23;20028;-78
2021/07/30 06:51:34;;;;;;;21.48;7.97;;;16.60;99.90;;;;;;6123683;23;20029;-78
2021/07/30 06:54:00;;;;;;;17.25;8.35;;;16.90;99.90;;;;;;6151390;23;20092;-78
2021/07/30 06:56:26;;;;;;;19.05;7.20;;;16.80;99.90;;;;;;6126322;23;20413;-78
2021/07/30 06:58:52;;;;;;;18.65;7.78;;;16.80;99.90;;;;;;6162864;23;20010;-79
2021/07/30 07:01:17;;;;;;;19.50;7.40;;;16.90;99.90;;;;;;6135856;23;20014;-79
2021/07/30 07:03:43;;;;;;;20.23;8.00;;;17.00;99.90;;;;;;6153253;23;20010;-79
2021/07/30 07:06:16;;;;;;;19.15;8.00;;;16.90;99.90;;;;;;6128092;23;20010;-80
2021/07/30 07:08:44;;;;;;;18.48;8.25;;;16.90;99.90;;;;;;6122932;23;20037;-79
2021/07/30 07:11:10;;;;;;;19.30;8.07;;;17.00;99.90;;;;;;6134928;23;20017;-78
2021/07/30 07:13:37;;;;;;;23.42;7.40;;;17.00;99.90;;;;;;6133062;23;20010;-80
2021/07/30 07:16:04;;;;;;;18.27;6.97;;;17.00;99.90;;;;;;6123230;23;20462;-80
2021/07/30 07:18:33;;;;;;;18.60;8.07;;;17.10;99.90;;;;;;6098634;23;20060;-80
2021/07/30 07:20:59;;;;;;;20.17;7.60;;;17.10;99.90;;;;;;6123835;23;20039;-80
2021/07/30 07:23:25;;;;;;;17.58;7.65;;;17.20;99.90;;;;;;6129369;23;20388;-79
2021/07/30 07:25:51;;;;;;;17.45;7.22;;;17.30;99.90;;;;;;6135196;23;20025;-79
2021/07/30 07:28:17;;;;;;;21.55;8.05;;;17.30;99.90;;;;;;6125817;23;20018;-79
2021/07/30 07:30:42;;;;;;;22.00;6.93;;;17.30;99.90;;;;;;6122889;23;20028;-80
2021/07/30 07:33:09;;;;;;;17.35;7.22;;;17.30;99.90;;;;;;6123945;23;20018;-80
2021/07/30 07:35:35;;;;;;;19.45;7.80;;;17.40;99.90;;;;;;6122464;23;20113;-81
2021/07/30 07:38:04;;;;;;;18.00;6.82;;;17.40;99.90;;;;;;6129926;23;20149;-81
2021/07/30 07:40:30;;;;;;;18.52;7.65;;;17.50;99.90;;;;;;6123006;23;20022;-80
2021/07/30 07:42:59;;;;;;;16.15;7.25;;;17.60;99.90;;;;;;6123862;23;20017;-81
2021/07/30 07:45:26;;;;;;;17.30;7.25;;;17.60;99.90;;;;;;6133175;23;20368;-78
2021/07/30 07:47:52;;;;;;;16.75;7.18;;;17.70;99.90;;;;;;6121105;23;20081;-77
2021/07/30 07:50:18;;;;;;;16.20;7.95;;;17.80;99.90;;;;;;6133863;23;20406;-78
2021/07/30 07:52:44;;;;;;;27.48;8.80;;;17.90;99.90;;;;;;6122238;23;20320;-77
2021/07/30 07:55:10;;;;;;;24.90;7.65;;;17.90;99.90;;;;;;6135488;23;20061;-77
2021/07/30 07:57:39;;;;;;;22.70;7.43;;;17.90;99.90;;;;;;6122942;23;20049;-78
2021/07/30 08:00:06;;;;;;;26.10;7.60;;;18.00;99.90;;;;;;6098813;23;20010;-77
2021/07/30 08:02:32;;;;;;;19.88;7.60;;;18.10;99.90;;;;;;6122158;23;20014;-77
2021/07/30 08:04:57;;;;;;;24.02;8.43;;;18.20;99.90;;;;;;6124679;23;20021;-78
2021/07/30 08:07:23;;;;;;;26.70;8.43;;;18.20;99.90;;;;;;6118492;23;20158;-77
2021/07/30 08:09:51;;;;;;;20.30;8.07;;;18.30;99.90;;;;;;6153464;23;20017;-78
2021/07/30 08:12:16;;;;;;;24.42;8.15;;;18.40;99.90;;;;;;6126897;23;20076;-81
2021/07/30 08:14:42;;;;;;;23.63;8.57;;;18.50;99.90;;;;;;6128160;23;20014;-79
2021/07/30 08:17:08;;;;;;;19.35;8.13;;;18.70;99.90;;;;;;6127152;23;20045;-80
2021/07/30 08:19:35;;;;;;;23.65;8.32;;;18.80;99.90;;;;;;6128263;23;20092;-78
2021/07/30 08:22:02;;;;;;;19.50;7.70;;;19.00;99.90;;;;;;6162888;23;20302;-80
2021/07/30 08:24:28;;;;;;;18.95;7.75;;;19.10;99.90;;;;;;6127338;23;20493;-80
2021/07/30 08:26:54;;;;;;;25.63;8.00;;;19.20;99.90;;;;;;6127380;23;20399;-80
2021/07/30 08:29:20;;;;;;;18.88;8.13;;;19.30;99.90;;;;;;6163714;23;20430;-80
2021/07/30 08:31:46;;;;;;;20.00;7.20;;;19.20;99.90;;;;;;6127689;23;20040;-80
2021/07/30 08:34:12;;;;;;;20.13;7.55;;;19.20;99.90;;;;;;6163596;23;20032;-79
2021/07/30 08:36:38;;;;;;;26.20;8.30;;;19.20;99.90;;;;;;6159672;23;20058;-80
2021/07/30 08:39:04;;;;;;;33.83;8.55;;;19.30;99.90;;;;;;6153480;23;20167;-80
2021/07/30 08:41:30;;;;;;;19.52;8.18;;;19.40;99.90;;;;;;6153764;23;20288;-80
2021/07/30 08:43:56;;;;;;;20.30;7.85;;;19.30;99.90;;;;;;6126894;23;20089;-79
2021/07/30 08:46:23;;;;;;;22.55;8.00;;;19.30;99.90;;;;;;6163277;23;20041;-79
2021/07/30 08:48:49;;;;;;;20.35;8.32;;;19.40;99.90;;;;;;6138038;23;20028;-80
2021/07/30 08:51:18;;;;;;;18.85;7.97;;;19.50;99.90;;;;;;6163133;23;20013;-80
2021/07/30 08:53:45;;;;;;;18.23;8.40;;;19.50;99.90;;;;;;6158129;23;20020;-80
2021/07/30 08:56:11;;;;;;;19.98;8.23;;;19.50;99.90;;;;;;6137736;23;20084;-79
2021/07/30 08:58:36;;;;;;;20.98;8.23;;;19.50;99.90;;;;;;6128026;23;20084;-80
2021/07/30 09:01:02;;;;;;;21.50;8.57;;;19.50;99.90;;;;;;6163287;23;20426;-80
2021/07/30 09:03:39;;;;;;;20.75;7.97;;;19.70;99.90;;;;;;6126948;23;20013;-80
2021/07/30 09:06:19;;;;;;;17.95;7.53;;;19.80;99.90;;;;;;6136214;23;20019;-79
2021/07/30 09:08:54;;;;;;;19.83;7.97;;;19.90;99.90;;;;;;6121982;23;20455;-79
2021/07/30 09:11:37;;;;;;;15.75;7.47;;;19.90;99.90;;;;;;6122569;23;20391;-79
2021/07/30 09:14:05;;;;;;;17.10;7.15;;;20.10;99.90;;;;;;6134611;23;20322;-79
2021/07/30 09:16:54;;;;;;;15.07;6.93;;;20.10;99.90;;;;;;6122259;23;20021;-79
2021/07/30 09:19:24;;;;;;;18.55;6.60;;;20.20;99.90;;;;;;6121468;23;20022;-80
2021/07/30 09:22:10;;;;;;;16.73;6.38;;;20.30;99.90;;;;;;6120152;23;20022;-80
2021/07/30 09:24:43;;;;;;;14.35;5.97;;;20.30;99.90;;;;;;6122340;23;20101;-80
2021/07/30 09:27:12;;;;;;;20.98;6.60;;;20.40;99.90;;;;;;6123776;23;20014;-80
2021/07/30 09:29:40;;;;;;;15.98;6.40;;;20.40;99.90;;;;;;6132230;23;20024;-80
2021/07/30 09:32:09;;;;;;;18.30;5.80;;;20.40;99.90;;;;;;6124001;23;20057;-79
2021/07/30 09:34:44;;;;;;;14.60;5.63;;;20.60;99.90;;;;;;6132831;23;20014;-79
2021/07/30 09:37:39;;;;;;;15.70;6.15;;;20.70;99.90;;;;;;6133258;23;20104;-80
2021/07/30 09:40:19;;;;;;;12.85;5.97;;;20.80;99.90;;;;;;6064011;23;20022;-80
2021/07/30 09:42:44;;;;;;;11.38;5.45;;;21.00;99.90;;;;;;6041015;23;20014;-80
2021/07/30 09:45:13;;;;;;;15.13;5.30;;;21.00;99.90;;;;;;6069346;23;20082;-80
2021/07/30 09:47:51;;;;;;;13.05;5.07;;;21.00;99.90;;;;;;6051345;23;20126;-80
2021/07/30 09:50:18;;;;;;;16.27;5.32;;;21.10;99.90;;;;;;6074270;23;20405;-79
2021/07/30 09:56:26;;;;;;;11.43;5.43;;;21.40;99.90;;;;;;6065161;23;20022;-79
2021/07/30 09:58:56;;;;;;;12.30;5.18;;;21.70;99.90;;;;;;6065166;23;20023;-79
2021/07/30 10:01:22;;;;;;;13.82;5.05;;;22.00;99.90;;;;;;6039599;23;20424;-79
2021/07/30 10:03:51;;;;;;;14.68;5.10;;;22.20;99.90;;;;;;6045992;23;20122;-80
2021/07/30 10:06:17;;;;;;;12.90;4.65;;;22.30;99.90;;;;;;6062313;23;20138;-80
2021/07/30 10:08:43;;;;;;;15.18;4.80;;;22.20;99.90;;;;;;6039094;23;20034;-80
2021/07/30 10:11:11;;;;;;;10.82;5.03;;;22.40;99.90;;;;;;6066683;23;20022;-80
2021/07/30 10:13:47;;;;;;;13.18;4.65;;;22.40;99.90;;;;;;6040054;23;20169;-80
2021/07/30 10:16:15;;;;;;;11.60;4.32;;;22.30;99.90;;;;;;6084574;23;20378;-80
2021/07/30 10:18:44;;;;;;;11.75;4.63;;;22.30;99.90;;;;;;6154007;23;20080;-80
2021/07/30 10:21:14;;;;;;;14.93;4.40;;;22.20;99.90;;;;;;6163545;23;20017;-80
2021/07/30 10:23:43;;;;;;;10.77;5.25;;;22.20;99.90;;;;;;6127926;23;20056;-80
2021/07/30 10:26:11;;;;;;;9.75;5.00;;;22.30;99.90;;;;;;6153992;23;20016;-80
2021/07/30 10:28:37;;;;;;;12.25;4.60;;;22.30;99.90;;;;;;6153808;23;20013;-80
2021/07/30 10:31:12;;;;;;;12.05;4.20;;;22.30;99.90;;;;;;6127494;23;20020;-80
2021/07/30 10:33:38;;;;;;;10.07;4.10;;;22.20;99.90;;;;;;6163981;23;20148;-80
2021/07/30 10:36:06;;;;;;;14.50;4.55;;;22.20;99.90;;;;;;6134888;23;20100;-81
2021/07/30 10:38:33;;;;;;;12.77;4.35;;;22.20;99.90;;;;;;6125935;23;20025;-81
2021/07/30 10:40:58;;;;;;;10.93;4.25;;;22.20;99.90;;;;;;6162905;23;20022;-81
2021/07/30 10:43:33;;;;;;;8.57;3.85;;;22.20;99.90;;;;;;6127073;23;20338;-81
2021/07/30 10:46:05;;;;;;;9.30;4.13;;;22.20;99.90;;;;;;6163102;23;20016;-81
2021/07/30 10:48:37;;;;;;;15.48;4.72;;;22.30;99.90;;;;;;6103612;23;20021;-80
2021/07/30 10:51:21;;;;;;;10.88;4.38;;;22.40;99.90;;;;;;6127664;23;20022;-80
2021/07/30 10:54:03;;;;;;;9.30;3.75;;;22.60;99.90;;;;;;6134022;23;20097;-80
2021/07/30 10:56:31;;;;;;;12.77;4.32;;;22.70;99.90;;;;;;6128264;23;20014;-80
2021/07/30 10:59:01;;;;;;;8.40;3.80;;;22.70;99.90;;;;;;6138452;23;20025;-80
2021/07/30 11:01:32;;;;;;;9.52;3.70;;;22.70;99.90;;;;;;6154359;23;20084;-82
2021/07/30 11:04:16;;;;;;;8.65;4.07;;;22.80;99.90;;;;;;6138721;23;20013;-80
2021/07/30 11:07:06;;;;;;;9.18;4.15;;;22.70;99.90;;;;;;6063043;23;20078;-80
2021/07/30 11:09:52;;;;;;;11.18;4.20;;;22.60;99.90;;;;;;6040673;23;20014;-81
2021/07/30 11:12:21;;;;;;;12.45;4.32;;;22.60;99.90;;;;;;6066658;23;20326;-80
2021/07/30 11:14:48;;;;;;;9.68;4.13;;;22.50;99.90;;;;;;6071861;23;20503;-81
2021/07/30 11:17:15;;;;;;;12.90;4.63;;;22.40;99.90;;;;;;6063211;23;20025;-81
2021/07/30 11:19:48;;;;;;;9.18;3.97;;;22.50;99.90;;;;;;6064034;23;20030;-81
2021/07/30 11:22:19;;;;;;;9.37;4.13;;;22.60;99.90;;;;;;6072434;23;20015;-81
2021/07/30 11:24:49;;;;;;;13.60;4.20;;;22.60;99.90;;;;;;6040419;23;20023;-80
2021/07/30 11:27:17;;;;;;;14.88;4.03;;;22.60;99.90;;;;;;6072781;23;20355;-82
2021/07/30 11:29:52;;;;;;;11.95;4.35;;;22.60;99.90;;;;;;6072331;23;20023;-82
2021/07/30 11:32:20;;;;;;;14.05;4.55;;;22.70;99.90;;;;;;6048345;23;20018;-80
2021/07/30 11:34:48;;;;;;;11.82;4.15;;;22.70;99.90;;;;;;6072162;23;20039;-81
2021/07/30 11:37:28;;;;;;;12.95;4.38;;;22.80;99.90;;;;;;6061192;23;20025;-80
2021/07/30 11:39:54;;;;;;;11.00;4.53;;;22.90;99.90;;;;;;6062891;23;20023;-80
2021/07/30 11:42:30;;;;;;;9.93;3.78;;;23.10;99.90;;;;;;6037311;23;20073;-80
2021/07/30 11:45:00;;;;;;;15.07;4.25;;;23.40;99.90;;;;;;6175842;23;20017;-80
2021/07/30 11:47:30;;;;;;;10.07;3.95;;;23.60;99.90;;;;;;6196410;23;20017;-79
2021/07/30 11:50:07;;;;;;;12.27;3.90;;;23.90;99.90;;;;;;6223594;23;20008;-81
2021/07/30 11:52:33;;;;;;;13.40;4.38;;;24.30;99.90;;;;;;6186843;23;20012;-82
2021/07/30 11:55:10;;;;;;;10.48;4.47;;;24.40;99.90;;;;;;6162242;23;20119;-81
2021/07/30 11:57:36;;;;;;;12.00;4.25;;;24.30;99.90;;;;;;6214209;23;20023;-81
2021/07/30 12:00:02;;;;;;;7.50;4.38;;;24.10;99.90;;;;;;6187151;23;20461;-81
2021/07/30 12:02:28;;;;;;;10.43;4.13;;;24.10;99.90;;;;;;6197015;23;20313;-81
2021/07/30 12:04:59;;;;;;;10.05;4.40;;;23.80;99.90;;;;;;6191433;23;20371;-81
2021/07/30 12:07:35;;;;;;;11.43;3.70;;;23.60;99.90;;;;;;6210617;23;20697;-80
2021/07/30 12:10:07;;;;;;;10.43;3.97;;;23.40;99.90;;;;;;6211850;23;20021;-81
2021/07/30 12:12:41;;;;;;;8.38;3.50;;;23.20;99.90;;;;;;6213964;23;20326;-80
2021/07/30 12:15:08;;;;;;;10.73;4.13;;;23.00;99.90;;;;;;6221749;23;20645;-79
2021/07/30 12:17:34;;;;;;;12.00;4.13;;;22.90;99.90;;;;;;6213233;23;20123;-79
2021/07/30 12:20:08;;;;;;;11.90;4.38;;;22.60;99.90;;;;;;6222043;23;20084;-79
2021/07/30 12:22:34;;;;;;;13.25;4.75;;;22.60;99.90;;;;;;6222889;23;20013;-79
2021/07/30 12:25:01;;;;;;;13.80;4.50;;;22.90;99.90;;;;;;6212997;23;20017;-78
2021/07/30 12:27:27;;;;;;;9.80;4.03;;;22.90;99.90;;;;;;6219680;23;20016;-80
2021/07/30 12:29:59;;;;;;;12.57;4.25;;;23.00;99.90;;;;;;6210341;23;20453;-81
2021/07/30 12:33:05;;;;;;;6.93;4.07;;;23.20;99.90;;;;;;6212772;23;20070;-80
2021/07/30 12:36:08;;;;;;;9.40;4.40;;;23.90;99.90;;;;;;6119927;23;20073;-81
2021/07/30 12:39:20;;;;;;;;;;;;;;;;;;;;;
2021/07/30 12:42:15;;;;;;;7.60;4.20;;;24.40;99.90;;;;;;6119915;23;20121;-81
2021/07/30 12:45:14;;;;;;;9.70;4.13;;;24.30;99.90;;;;;;6106675;23;20025;-80
2021/07/30 12:47:49;;;;;;;10.85;4.50;;;24.20;99.90;;;;;;6097844;23;20443;-78
2021/07/30 12:50:27;;;;;;;11.15;4.28;;;23.60;99.90;;;;;;6129549;23;20443;-78